Time;durP1;ratioP1;P1;durP2;ratioP2;P2;SDS_P1;SDS_P2;PMS_P1;PMS_P2;Temp;Humidity;BMP_temperature;BMP_pressure;BME280_temperature;BME280_humidity;BME280_pressure;Samples;Min_cycle;Max_cycle;Signal;HPM_P1;HPM_P2
2023/11/09 00:00:21;;;;;;;9.60;7.90;;;;;;;6.68;100.00;100017.90;179533;1251;44404;-83
2023/11/09 00:04:44;;;;;;;10.90;7.80;;;;;;;6.70;100.00;100010.55;180216;1250;58772;-81
2023/11/09 00:08:48;;;;;;;12.30;7.80;;;;;;;6.72;100.00;100012.53;179599;1251;45900;-81
2023/11/09 00:12:53;;;;;;;11.20;8.00;;;;;;;6.70;100.00;100011.91;180502;1251;44388;-80
2023/11/09 00:16:56;;;;;;;11.00;9.20;;;;;;;6.72;100.00;100007.94;180453;1250;44798;-81
2023/11/09 00:21:00;;;;;;;19.90;13.10;;;;;;;6.73;100.00;100008.02;181415;1250;44097;-81
2023/11/09 00:25:03;;;;;;;18.60;11.00;;;;;;;6.76;100.00;100002.91;180550;1251;59619;-84
2023/11/09 00:29:06;;;;;;;13.90;9.30;;;;;;;6.77;100.00;100003.02;179854;1251;46101;-83
2023/11/09 00:33:09;;;;;;;17.50;8.40;;;;;;;6.73;100.00;99995.67;180286;1250;44143;-83
2023/11/09 00:37:12;;;;;;;20.70;12.20;;;;;;;6.71;100.00;99996.70;180138;1250;46176;-82
2023/11/09 00:41:16;;;;;;;14.70;8.50;;;;;;;6.71;100.00;99992.67;179464;1250;45822;-83
2023/11/09 00:45:19;;;;;;;19.90;10.30;;;;;;;6.67;100.00;99989.25;180084;1250;59353;-83
2023/11/09 00:49:22;;;;;;;12.20;8.40;;;;;;;6.70;100.00;99988.85;179700;1251;46134;-83
2023/11/09 00:53:25;;;;;;;13.10;7.30;;;;;;;6.69;100.00;99986.78;179680;1251;46576;-83
2023/11/09 00:57:31;;;;;;;12.50;7.60;;;;;;;6.70;100.00;99982.46;179284;1250;45977;-81
2023/11/09 01:01:34;;;;;;;9.10;7.90;;;;;;;6.69;100.00;99981.17;180231;1250;46102;-83
2023/11/09 01:05:37;;;;;;;10.30;7.70;;;;;;;6.67;100.00;99974.77;179621;1251;60290;-83
2023/11/09 01:09:41;;;;;;;11.10;6.20;;;;;;;6.63;100.00;99971.58;179287;1249;45987;-83
2023/11/09 01:13:44;;;;;;;19.10;6.80;;;;;;;6.50;100.00;99966.98;178798;1251;46156;-83
2023/11/09 01:18:04;;;;;;;14.20;8.10;;;;;;;6.51;100.00;99963.24;179547;1253;44367;-82
2023/11/09 01:22:07;;;;;;;16.50;8.50;;;;;;;6.51;100.00;99956.86;179677;1250;45920;-83
2023/11/09 01:26:10;;;;;;;14.60;8.90;;;;;;;6.53;100.00;99957.65;178915;1250;57663;-81
2023/11/09 01:30:13;;;;;;;15.00;7.10;;;;;;;6.55;100.00;99949.53;178771;1251;46226;-81
2023/11/09 01:34:16;;;;;;;13.30;7.60;;;;;;;6.58;100.00;99948.07;178755;1251;46018;-82
2023/11/09 01:38:20;;;;;;;10.70;7.10;;;;;;;6.62;100.00;99948.15;180090;1251;44359;-82
2023/11/09 01:42:23;;;;;;;8.50;5.70;;;;;;;6.62;100.00;99943.58;178607;1251;46101;-81
2023/11/09 01:46:27;;;;;;;10.10;6.10;;;;;;;6.61;100.00;99944.71;179952;1250;58229;-82
2023/11/09 01:50:31;;;;;;;8.90;5.60;;;;;;;6.61;100.00;99945.81;180124;1251;45983;-82
2023/11/09 01:54:38;;;;;;;9.30;5.50;;;;;;;6.61;100.00;99936.05;179481;1250;46005;-81
2023/11/09 01:58:45;;;;;;;12.60;6.80;;;;;;;6.65;100.00;99928.77;179548;1251;46101;-81
2023/11/09 02:02:52;;;;;;;14.00;6.20;;;;;;;6.65;100.00;99931.23;180931;1251;46000;-79
2023/11/09 02:06:56;;;;;;;8.10;5.20;;;;;;;6.68;100.00;99922.17;180601;1250;58281;-81
2023/11/09 02:10:59;;;;;;;9.60;5.50;;;;;;;6.74;100.00;99928.63;180906;1249;46076;-83
2023/11/09 02:15:03;;;;;;;11.00;5.70;;;;;;;6.82;100.00;99937.99;180225;1251;44812;-83
2023/11/09 02:19:11;;;;;;;41.90;20.70;;;;;;;6.83;100.00;99931.17;181127;1250;46044;-81
2023/11/09 02:23:18;;;;;;;18.00;10.70;;;;;;;6.82;100.00;99931.46;179890;1251;46041;-83
2023/11/09 02:27:21;;;;;;;12.50;9.40;;;;;;;6.79;100.00;99938.54;179541;1251;59659;-82
2023/11/09 02:31:24;;;;;;;11.60;6.30;;;;;;;6.70;100.00;99929.64;179545;1250;46108;-83
2023/11/09 02:35:28;;;;;;;7.70;5.70;;;;;;;6.67;100.00;99924.77;180498;1251;44074;-83
2023/11/09 02:39:31;;;;;;;7.30;4.60;;;;;;;6.60;100.00;99921.53;180206;1250;44298;-80
2023/11/09 02:43:40;;;;;;;6.40;5.60;;;;;;;6.49;100.00;99923.04;180734;1251;44199;-82
2023/11/09 02:47:43;;;;;;;8.60;5.70;;;;;;;6.40;100.00;99925.59;180745;1251;60200;-83
2023/11/09 02:51:46;;;;;;;5.70;4.60;;;;;;;6.26;100.00;99906.13;179635;1251;46027;-83
2023/11/09 02:55:49;;;;;;;7.80;5.40;;;;;;;6.21;100.00;99905.91;180673;1251;46111;-83
2023/11/09 02:59:54;;;;;;;5.20;4.70;;;;;;;6.11;100.00;99901.67;179123;1251;46020;-83
2023/11/09 03:03:57;;;;;;;8.70;4.90;;;;;;;6.00;100.00;99900.15;178615;1251;46146;-83
2023/11/09 03:08:01;;;;;;;7.20;5.10;;;;;;;5.94;100.00;99897.51;179783;1251;59487;-81
2023/11/09 03:12:07;;;;;;;8.80;5.50;;;;;;;5.94;100.00;99886.44;179618;1250;44339;-82
2023/11/09 03:16:11;;;;;;;5.00;4.50;;;;;;;5.88;100.00;99884.21;180363;1251;46092;-83
2023/11/09 03:20:14;;;;;;;10.50;4.70;;;;;;;5.85;100.00;99880.88;179815;1250;45986;-82
2023/11/09 03:24:18;;;;;;;5.70;4.10;;;;;;;5.88;100.00;99881.55;180278;1251;46144;-80
2023/11/09 03:28:21;;;;;;;9.80;4.70;;;;;;;5.94;100.00;99880.80;179859;1252;59526;-83
2023/11/09 03:32:24;;;;;;;6.50;4.70;;;;;;;6.00;100.00;99881.27;181453;1250;45954;-82
2023/11/09 03:36:27;;;;;;;9.50;5.50;;;;;;;6.06;100.00;99869.43;179557;1251;45996;-83
2023/11/09 03:40:30;;;;;;;7.80;5.30;;;;;;;6.09;100.00;99867.64;178814;1252;46099;-83
2023/11/09 03:44:38;;;;;;;12.30;6.30;;;;;;;6.04;100.00;99855.15;179347;1251;46105;-84
2023/11/09 03:48:41;;;;;;;5.60;4.80;;;;;;;6.03;100.00;99854.66;179779;1250;58946;-84
2023/11/09 03:52:45;;;;;;;10.50;5.40;;;;;;;6.04;100.00;99854.82;179818;1250;45992;-80
2023/11/09 03:56:48;;;;;;;4.70;3.90;;;;;;;6.02;100.00;99840.35;179610;1251;44457;-79
2023/11/09 04:00:51;;;;;;;5.50;5.00;;;;;;;6.04;100.00;99831.60;179645;1253;46466;-84
2023/11/09 04:04:55;;;;;;;6.30;3.50;;;;;;;6.08;100.00;99829.19;180012;1251;44212;-81
2023/11/09 04:08:58;;;;;;;7.10;5.50;;;;;;;6.05;100.00;99823.63;179055;1250;58412;-83
2023/11/09 04:13:02;;;;;;;6.40;4.60;;;;;;;6.09;100.00;99824.70;179442;1251;46402;-83
2023/11/09 04:17:05;;;;;;;10.30;4.70;;;;;;;6.08;100.00;99818.61;180004;1249;45803;-83
2023/11/09 04:21:09;;;;;;;6.70;4.10;;;;;;;6.07;100.00;99814.08;180002;1249;46335;-81
2023/11/09 04:25:14;;;;;;;6.80;4.10;;;;;;;6.06;100.00;99807.52;179239;1250;46098;-84
2023/11/09 04:29:20;;;;;;;11.10;5.60;;;;;;;6.04;100.00;99811.98;180007;1250;58475;-83
2023/11/09 04:33:23;;;;;;;6.80;4.90;;;;;;;6.03;100.00;99803.50;181503;1253;45992;-83
2023/11/09 04:37:26;;;;;;;9.60;4.20;;;;;;;5.93;100.00;99801.31;180394;1253;46229;-84
2023/11/09 04:41:31;;;;;;;8.10;4.50;;;;;;;5.83;100.00;99799.34;180918;1251;46118;-82
2023/11/09 04:45:35;;;;;;;5.80;3.90;;;;;;;5.74;100.00;99793.83;181989;1251;44120;-82
2023/11/09 04:49:45;;;;;;;6.80;5.90;;;;;;;5.70;100.00;99787.24;180199;1250;60275;-79
2023/11/09 04:53:52;;;;;;;8.80;5.70;;;;;;;5.68;100.00;99784.35;181136;1250;45983;-83
2023/11/09 05:06:55;;;;;;;9.00;6.00;;;;;;;5.56;100.00;99765.68;180477;1253;44205;-81
2023/11/09 05:10:58;;;;;;;12.80;4.70;;;;;;;5.53;100.00;99752.19;180059;1251;59598;-82
2023/11/09 05:15:01;;;;;;;5.70;5.10;;;;;;;5.55;100.00;99753.62;179730;1253;46427;-84
2023/11/09 05:19:04;;;;;;;7.70;4.50;;;;;;;5.53;100.00;99753.23;179841;1251;45976;-82
2023/11/09 05:23:08;;;;;;;6.10;4.90;;;;;;;5.37;100.00;99746.05;179948;1251;46041;-83
2023/11/09 05:27:11;;;;;;;10.10;4.40;;;;;;;5.34;100.00;99740.99;180115;1251;45887;-83
2023/11/09 05:31:14;;;;;;;5.50;4.40;;;;;;;5.34;100.00;99734.34;180706;1251;58129;-83
2023/11/09 05:35:18;;;;;;;6.80;3.90;;;;;;;5.28;100.00;99734.32;179398;1251;46560;-83
2023/11/09 05:39:22;;;;;;;5.50;4.60;;;;;;;5.27;100.00;99726.18;178649;1251;46210;-83
2023/11/09 05:43:27;;;;;;;19.60;11.50;;;;;;;5.23;100.00;99723.23;179502;1251;44760;-83
2023/11/09 05:47:30;;;;;;;11.30;5.20;;;;;;;5.27;100.00;99724.75;179969;1251;44119;-84
2023/11/09 05:51:35;;;;;;;6.90;4.50;;;;;;;5.19;100.00;99721.47;179676;1251;58627;-83
2023/11/09 05:55:38;;;;;;;12.90;4.80;;;;;;;5.11;100.00;99718.60;179234;1250;46028;-84
2023/11/09 05:59:41;;;;;;;8.00;5.00;;;;;;;5.03;100.00;99719.86;179811;1250;44201;-82
2023/11/09 06:03:44;;;;;;;12.70;6.40;;;;;;;5.09;100.00;99728.98;179027;1251;46146;-84
2023/11/09 06:07:47;;;;;;;8.40;6.20;;;;;;;5.11;100.00;99734.77;178974;1251;46082;-85
2023/11/09 06:11:51;;;;;;;8.70;6.30;;;;;;;5.20;100.00;99734.00;179163;1250;58930;-84
2023/11/09 06:15:55;;;;;;;14.50;7.50;;;;;;;5.33;100.00;99731.02;179731;1251;46076;-84
2023/11/09 06:19:59;;;;;;;6.60;4.60;;;;;;;5.48;100.00;99735.98;179157;1251;46071;-83
2023/11/09 06:24:02;;;;;;;9.60;5.30;;;;;;;5.67;100.00;99739.57;179093;1251;46325;-81
2023/11/09 06:28:05;;;;;;;7.30;5.10;;;;;;;5.89;100.00;99739.09;178844;1251;170582;-81
2023/11/09 06:32:09;;;;;;;7.20;5.60;;;;;;;6.07;100.00;99736.29;180326;1251;58204;-80
2023/11/09 06:36:13;;;;;;;8.20;5.50;;;;;;;6.20;100.00;99740.32;178965;1251;45976;-81
2023/11/09 06:40:17;;;;;;;12.10;5.60;;;;;;;6.19;100.00;99743.89;180273;1254;46126;-82
2023/11/09 06:44:20;;;;;;;9.70;5.30;;;;;;;6.24;100.00;99744.23;180328;1250;44050;-83
2023/11/09 06:48:24;;;;;;;9.60;6.10;;;;;;;6.44;100.00;99740.85;179278;1252;46082;-82
2023/11/09 06:52:28;;;;;;;8.90;4.50;;;;;;;6.55;100.00;99735.65;179999;1254;60004;-81
2023/11/09 06:56:32;;;;;;;7.90;4.80;;;;;;;6.69;100.00;99730.96;180201;1251;46006;-82
2023/11/09 07:00:36;;;;;;;6.80;4.10;;;;;;;6.67;100.00;99726.36;180008;1251;45867;-82
2023/11/09 07:04:39;;;;;;;5.90;3.60;;;;;;;6.80;100.00;99722.55;180165;1251;46110;-80
2023/11/09 07:08:43;;;;;;;4.70;4.00;;;;;;;6.81;100.00;99722.64;180097;1251;44407;-81
2023/11/09 07:12:46;;;;;;;7.70;5.00;;;;;;;6.97;100.00;99726.95;179816;1251;59213;-83
2023/11/09 07:16:54;;;;;;;8.90;5.50;;;;;;;7.20;100.00;99724.11;179795;1250;46185;-83
2023/11/09 07:20:57;;;;;;;11.40;6.40;;;;;;;7.46;100.00;99719.64;179183;1251;46220;-83
2023/11/09 07:25:15;;;;;;;6.40;4.30;;;;;;;7.68;100.00;99713.55;179433;1251;46540;-83
2023/11/09 07:29:18;;;;;;;7.60;5.40;;;;;;;7.77;100.00;99711.79;179858;1251;46138;-84
2023/11/09 07:33:21;;;;;;;5.30;3.90;;;;;;;7.85;100.00;99709.08;179907;1253;57918;-84
2023/11/09 07:37:27;;;;;;;4.10;2.80;;;;;;;7.96;100.00;99698.70;179463;1250;45990;-84
2023/11/09 07:41:30;;;;;;;5.70;3.40;;;;;;;8.03;100.00;99690.31;178952;1251;45989;-84
2023/11/09 07:45:34;;;;;;;5.60;3.90;;;;;;;8.19;100.00;99684.13;179367;1250;46034;-83
2023/11/09 07:49:37;;;;;;;6.10;3.00;;;;;;;8.43;100.00;99681.10;179256;1251;44665;-84
2023/11/09 07:53:40;;;;;;;6.40;3.60;;;;;;;8.69;100.00;99678.25;180139;1251;59730;-84
2023/11/09 07:57:45;;;;;;;7.20;3.50;;;;;;;8.88;100.00;99670.84;179557;1251;46110;-85
2023/11/09 08:01:49;;;;;;;4.60;4.00;;;;;;;9.07;100.00;99667.30;179356;1254;46098;-84
2023/11/09 08:05:52;;;;;;;6.40;4.40;;;;;;;9.19;100.00;99664.67;178747;1251;46190;-83
2023/11/09 08:09:55;;;;;;;11.30;7.90;;;;;;;9.40;99.95;99660.45;179242;1251;46130;-84
2023/11/09 08:13:58;;;;;;;7.80;5.50;;;;;;;9.58;99.45;99660.86;179260;1253;58797;-85
2023/11/09 08:18:05;;;;;;;13.80;7.60;;;;;;;9.82;98.96;99651.45;179068;1251;45986;-83
2023/11/09 08:22:08;;;;;;;13.90;6.60;;;;;;;10.05;98.13;99645.89;179624;1251;46003;-83
2023/11/09 08:26:11;;;;;;;7.40;4.20;;;;;;;10.06;97.04;99644.08;179930;1253;45980;-83
2023/11/09 08:30:15;;;;;;;17.70;6.00;;;;;;;10.23;95.38;99642.91;179695;1251;44819;-84
2023/11/09 08:34:21;;;;;;;11.60;5.50;;;;;;;10.36;92.30;99638.15;179689;1251;58421;-85
2023/11/09 08:38:24;;;;;;;8.30;4.20;;;;;;;10.57;91.59;99634.22;179413;1250;46091;-83
2023/11/09 08:42:29;;;;;;;6.10;2.90;;;;;;;10.89;92.43;99635.30;179580;1251;46194;-85
2023/11/09 08:46:32;;;;;;;7.00;2.90;;;;;;;11.18;90.49;99637.55;180221;1253;45993;-84
2023/11/09 08:50:40;;;;;;;7.60;3.40;;;;;;;11.42;88.30;99639.78;179386;1254;46095;-85
2023/11/09 08:54:45;;;;;;;4.30;2.90;;;;;;;11.64;87.63;99628.82;179073;1256;56898;-84
2023/11/09 08:58:50;;;;;;;9.30;3.30;;;;;;;11.84;85.31;99622.08;179065;1255;46578;-84
2023/11/09 09:02:54;;;;;;;5.20;2.30;;;;;;;11.98;83.85;99626.02;178975;1252;46095;-85
2023/11/09 09:06:58;;;;;;;2.80;1.50;;;;;;;12.15;82.25;99623.39;179301;1251;46098;-85
2023/11/09 09:11:01;;;;;;;4.00;3.10;;;;;;;12.32;80.05;99620.73;178708;1254;46033;-84
2023/11/09 09:15:12;;;;;;;3.90;2.80;;;;;;;12.49;79.37;99611.50;179250;1255;60446;-85
2023/11/09 09:19:17;;;;;;;7.50;4.00;;;;;;;12.63;79.91;99609.38;178999;1251;46123;-84
2023/11/09 09:23:21;;;;;;;2.10;1.90;;;;;;;12.76;80.04;99608.90;179315;1255;46097;-84
2023/11/09 09:27:24;;;;;;;2.90;1.30;;;;;;;12.94;80.34;99604.27;178790;1251;46421;-85
2023/11/09 09:31:28;;;;;;;8.50;2.40;;;;;;;13.01;75.93;99597.64;178942;1251;46044;-83
2023/11/09 09:35:32;;;;;;;4.20;2.70;;;;;;;13.00;75.64;99592.02;178746;1251;59500;-83
2023/11/09 09:39:48;;;;;;;2.70;1.30;;;;;;;12.96;76.10;99586.05;179113;1251;46095;-84
2023/11/09 09:43:52;;;;;;;3.90;1.80;;;;;;;12.95;75.99;99577.81;180238;1251;44368;-84
2023/11/09 09:47:58;;;;;;;2.20;1.50;;;;;;;13.07;76.03;99576.23;178991;1253;46049;-84
2023/11/09 09:52:02;;;;;;;;;;;;;;;13.23;72.96;99564.02;180038;1255;45938;-84
2023/11/09 09:56:07;;;;;;;1.40;0.60;;;;;;;13.51;68.09;99554.58;179408;1251;59334;-84
2023/11/09 10:00:23;;;;;;;5.90;0.80;;;;;;;13.74;65.56;99545.96;179456;1251;45999;-85
2023/11/09 10:04:27;;;;;;;3.50;0.80;;;;;;;13.88;64.70;99541.25;179588;1251;46044;-85
2023/11/09 10:08:30;;;;;;;1.00;0.50;;;;;;;14.01;64.20;99537.34;179317;1251;46100;-84
2023/11/09 10:12:39;;;;;;;0.40;0.20;;;;;;;14.12;62.93;99528.34;179464;1251;44507;-85
2023/11/09 10:16:42;;;;;;;1.20;0.70;;;;;;;14.21;61.03;99521.23;179744;1251;58957;-85
2023/11/09 10:20:57;;;;;;;0.60;0.40;;;;;;;14.27;60.69;99514.26;179484;1256;44831;-85
2023/11/09 10:25:00;;;;;;;2.70;0.90;;;;;;;14.40;60.78;99509.22;179543;1251;46470;-83
2023/11/09 10:29:05;;;;;;;3.60;0.50;;;;;;;14.53;59.82;99518.23;179863;1250;46107;-85
2023/11/09 10:33:10;;;;;;;0.70;0.50;;;;;;;14.72;60.50;99514.48;179908;1251;46063;-84
2023/11/09 10:37:14;;;;;;;5.90;1.10;;;;;;;14.82;59.73;99511.13;179744;1251;59822;-84
2023/11/09 10:41:19;;;;;;;0.80;0.50;;;;;;;14.72;56.66;99503.65;179811;1251;46099;-85
2023/11/09 10:45:45;;;;;;;0.60;0.40;;;;;;;14.73;57.44;99500.00;179604;1252;46124;-84
2023/11/09 10:49:52;;;;;;;2.80;1.30;;;;;;;14.63;55.53;99492.08;179672;1251;46110;-84
2023/11/09 10:54:01;;;;;;;2.00;1.00;;;;;;;14.72;57.14;99496.89;179234;1251;46210;-85
2023/11/09 10:58:05;;;;;;;49.90;29.70;;;;;;;14.66;54.63;99494.77;179711;1251;58484;-85
2023/11/09 11:02:16;;;;;;;3.00;1.20;;;;;;;14.61;54.09;99486.80;179605;1254;46405;-82
2023/11/09 11:06:42;;;;;;;3.70;1.30;;;;;;;14.66;54.99;99480.15;179521;1251;46012;-85
2023/11/09 11:10:51;;;;;;;6.50;3.80;;;;;;;14.64;55.64;99482.84;179271;1251;46631;-83
2023/11/09 11:14:56;;;;;;;1.40;1.00;;;;;;;14.65;54.03;99474.61;179595;1251;45990;-84
2023/11/09 11:19:18;;;;;;;1.90;0.90;;;;;;;14.68;54.83;99472.77;179659;1251;58749;-85
2023/11/09 11:24:08;;;;;;;1.70;0.60;;;;;;;14.62;54.57;99470.59;178804;1251;46028;-84
2023/11/09 11:28:17;;;;;;;0.70;0.70;;;;;;;14.60;54.21;99467.42;178395;1257;46807;-85
2023/11/09 11:32:24;;;;;;;1.50;1.00;;;;;;;14.70;56.22;99467.44;178614;1257;46425;-84
2023/11/09 11:36:30;;;;;;;1.00;0.90;;;;;;;14.74;56.86;99461.65;179305;1257;45983;-85
2023/11/09 11:40:34;;;;;;;3.20;1.60;;;;;;;14.76;57.33;99459.48;179010;1257;59507;-85
2023/11/09 11:44:37;;;;;;;2.80;0.90;;;;;;;14.72;56.21;99457.06;179122;1257;46092;-83
2023/11/09 11:48:52;;;;;;;2.30;0.90;;;;;;;14.59;55.61;99454.88;178263;1257;46287;-85
2023/11/09 11:53:00;;;;;;;2.00;1.10;;;;;;;14.58;57.18;99450.23;180526;1257;46286;-84
2023/11/09 12:17:19;;;;;;;4.00;2.50;;;;;;;14.58;56.14;99414.64;181125;1260;43682;-58
2023/11/09 12:21:29;;;;;;;5.80;2.90;;;;;;;14.66;56.90;99413.62;180902;1256;45962;-59
2023/11/09 12:25:53;;;;;;;2.10;1.40;;;;;;;14.46;56.60;99408.17;180976;1256;59105;-61
2023/11/09 12:30:03;;;;;;;2.10;1.60;;;;;;;14.39;57.36;99402.17;180654;1256;46110;-61
2023/11/09 12:34:17;;;;;;;3.60;2.00;;;;;;;14.28;57.33;99402.65;180682;1256;43521;-60
2023/11/09 12:38:21;;;;;;;3.10;2.10;;;;;;;14.11;57.69;99401.84;180467;1257;44715;-61
2023/11/09 12:42:25;;;;;;;3.90;2.30;;;;;;;13.99;58.26;99400.97;180726;1256;43454;-61
2023/11/09 12:46:32;;;;;;;3.20;1.40;;;;;;;13.99;58.52;99400.00;180611;1256;57769;-60
2023/11/09 12:50:38;;;;;;;5.00;1.30;;;;;;;14.03;58.41;99396.29;180547;1256;43706;-61
2023/11/09 12:54:45;;;;;;;1.60;1.30;;;;;;;14.14;58.62;99394.83;180595;1256;43517;-61
2023/11/09 12:58:53;;;;;;;2.70;1.60;;;;;;;14.16;58.05;99390.60;180769;1257;43763;-60
2023/11/09 13:03:24;;;;;;;2.60;1.50;;;;;;;14.18;57.36;99380.60;180797;1257;43611;-59
2023/11/09 13:07:29;;;;;;;3.00;1.30;;;;;;;14.14;58.17;99371.91;180762;1256;58710;-59
2023/11/09 13:16:45;;;;;;;3.30;2.50;;;;;;;14.11;59.06;99377.77;180581;1257;43805;-60
2023/11/09 13:20:53;;;;;;;7.00;4.80;;;;;;;14.07;58.88;99377.55;180704;1257;45859;-61
2023/11/09 13:24:56;;;;;;;8.60;3.80;;;;;;;14.01;59.66;99379.48;180649;1256;45972;-61
2023/11/09 13:29:56;;;;;;;3.60;2.30;;;;;;;13.94;60.57;99380.06;180626;1256;58449;-60
2023/11/09 13:34:07;;;;;;;2.40;1.50;;;;;;;13.85;60.20;99378.54;180637;1257;43869;-60
2023/11/09 13:38:29;;;;;;;5.10;2.00;;;;;;;13.77;61.26;99380.45;180543;1256;45965;-60
2023/11/09 13:43:00;;;;;;;6.30;4.20;;;;;;;13.66;61.62;99382.49;180463;1260;45012;-60
2023/11/09 13:47:08;;;;;;;8.10;5.00;;;;;;;13.57;62.33;99379.77;180631;1257;43585;-60
2023/11/09 13:51:14;;;;;;;6.50;4.10;;;;;;;13.45;62.84;99375.70;180365;1257;58249;-63
2023/11/09 13:59:54;;;;;;;10.50;4.90;;;;;;;13.33;61.98;99368.98;180428;1257;44732;-65
2023/11/09 14:04:29;;;;;;;7.30;3.90;;;;;;;13.22;61.71;99367.57;180399;1261;44480;-65
2023/11/09 14:08:58;;;;;;;8.10;5.50;;;;;;;13.17;61.34;99371.00;180255;1257;46143;-65
2023/11/09 14:13:28;;;;;;;7.80;3.70;;;;;;;13.13;60.95;99369.89;180127;1260;58765;-66
2023/11/09 14:17:34;;;;;;;5.10;3.00;;;;;;;13.11;60.36;99360.28;180193;1257;45975;-65
2023/11/09 14:22:04;;;;;;;10.70;4.80;;;;;;;13.07;62.02;99355.58;180365;1260;43768;-65
2023/11/09 14:26:09;;;;;;;4.60;1.80;;;;;;;12.94;61.42;99349.55;180162;1257;44113;-65
2023/11/09 14:30:14;;;;;;;4.50;1.50;;;;;;;12.85;61.10;99345.33;180430;1257;44816;-65
2023/11/09 14:34:25;;;;;;;3.70;2.30;;;;;;;12.80;61.39;99339.52;180175;1257;58895;-65
2023/11/09 14:38:32;;;;;;;4.30;2.20;;;;;;;12.74;60.99;99339.83;180112;1257;44661;-65
2023/11/09 14:42:38;;;;;;;3.30;3.00;;;;;;;12.72;61.18;99342.86;180405;1259;43525;-64
2023/11/09 14:46:42;;;;;;;4.00;2.10;;;;;;;12.65;61.04;99341.58;180410;1260;43759;-64
2023/11/09 14:50:47;;;;;;;5.20;3.10;;;;;;;12.61;61.63;99337.10;180445;1260;45977;-65
2023/11/09 14:54:51;;;;;;;2.70;2.30;;;;;;;12.51;62.36;99350.36;180282;1257;57415;-65
2023/11/09 14:58:54;;;;;;;4.60;3.60;;;;;;;12.43;64.02;99350.82;180277;1256;43625;-66
2023/11/09 15:02:58;;;;;;;5.00;4.50;;;;;;;12.32;65.01;99346.30;180184;1258;44633;-66
2023/11/09 15:07:17;;;;;;;7.20;4.50;;;;;;;12.24;66.10;99347.84;180252;1257;43733;-65
2023/11/09 15:11:23;;;;;;;10.70;6.10;;;;;;;12.15;66.65;99343.92;180287;1258;43774;-66
2023/11/09 15:15:28;;;;;;;7.50;5.20;;;;;;;12.02;67.32;99344.22;180046;1258;59185;-65
2023/11/09 15:19:33;;;;;;;7.50;4.20;;;;;;;11.93;69.13;99338.05;180341;1257;46087;-66
2023/11/09 15:24:09;;;;;;;5.50;4.10;;;;;;;11.78;71.11;99340.17;180230;1258;45856;-66
2023/11/09 15:28:14;;;;;;;;;;;;;;;11.64;72.68;99338.04;180087;1257;45974;-65
2023/11/09 15:32:18;;;;;;;8.10;7.00;;;;;;;11.53;74.12;99331.70;180284;1257;43317;-65
2023/11/09 15:36:26;;;;;;;10.60;6.80;;;;;;;11.45;75.00;99331.08;180284;1257;60006;-60
2023/11/09 15:40:30;;;;;;;25.70;15.40;;;;;;;11.32;76.41;99326.16;180540;1258;45124;-61
2023/11/09 15:45:00;;;;;;;11.50;9.00;;;;;;;11.21;77.45;99314.09;180641;1256;44697;-61
2023/11/09 15:49:09;;;;;;;10.50;7.90;;;;;;;11.16;77.90;99312.84;180549;1260;45994;-61
2023/11/09 15:53:22;;;;;;;8.20;5.80;;;;;;;11.11;78.03;99308.41;180578;1256;43763;-61
2023/11/09 15:57:27;;;;;;;9.90;7.40;;;;;;;11.11;77.89;99309.58;180564;1257;57983;-61
2023/11/09 16:01:33;;;;;;;14.40;7.50;;;;;;;11.11;77.61;99314.55;180560;1257;45000;-61
2023/11/09 16:05:37;;;;;;;12.10;8.10;;;;;;;11.07;77.65;99313.77;180796;1257;44797;-61
2023/11/09 16:09:41;;;;;;;27.60;17.90;;;;;;;11.08;77.41;99313.09;180704;1257;43521;-60
2023/11/09 16:14:08;;;;;;;46.30;26.60;;;;;;;11.13;77.33;99318.67;180841;1260;43857;-60
2023/11/09 16:18:14;;;;;;;34.30;20.60;;;;;;;11.11;77.40;99326.45;180620;1258;58534;-60
2023/11/09 16:22:17;;;;;;;42.00;23.60;;;;;;;11.12;77.73;99330.48;180544;1257;45927;-60
2023/11/09 16:26:25;;;;;;;56.50;30.40;;;;;;;11.01;78.04;99332.38;180650;1257;43493;-61
2023/11/09 16:30:31;;;;;;;33.80;20.60;;;;;;;11.04;78.16;99333.59;180672;1257;43706;-60
2023/11/09 16:34:55;;;;;;;13.20;8.60;;;;;;;10.99;78.82;99337.79;180564;1257;45938;-60
2023/11/09 16:39:03;;;;;;;10.20;8.10;;;;;;;10.95;78.99;99342.73;180558;1257;59979;-61
2023/11/09 16:43:14;;;;;;;18.20;11.90;;;;;;;10.94;78.77;99350.77;180418;1257;44996;-60
2023/11/09 16:47:19;;;;;;;17.00;11.50;;;;;;;10.97;78.61;99353.59;180415;1257;46101;-59
2023/11/09 16:51:23;;;;;;;23.50;14.70;;;;;;;10.92;78.76;99356.00;180471;1257;45003;-60
2023/11/09 16:55:28;;;;;;;15.60;10.40;;;;;;;10.92;78.72;99361.89;180605;1260;43805;-59
2023/11/09 16:59:32;;;;;;;85.20;47.50;;;;;;;10.85;78.58;99362.49;180656;1257;58361;-61
2023/11/09 17:03:36;;;;;;;39.00;21.00;;;;;;;10.82;79.36;99363.90;180559;1256;46114;-60
2023/11/09 17:07:42;;;;;;;31.30;21.20;;;;;;;10.75;80.85;99365.45;180650;1257;44799;-60
2023/11/09 17:11:48;;;;;;;78.20;37.30;;;;;;;10.57;82.13;99365.77;180531;1257;43952;-60
2023/11/09 17:15:51;;;;;;;144.80;79.90;;;;;;;10.40;82.56;99362.90;180624;1257;46048;-60
2023/11/09 17:19:55;;;;;;;110.20;63.00;;;;;;;10.27;83.02;99363.79;180728;1257;58559;-60
2023/11/09 17:24:08;;;;;;;61.30;35.90;;;;;;;10.14;83.41;99362.35;180645;1257;45870;-60
2023/11/09 17:28:11;;;;;;;25.40;18.10;;;;;;;10.04;83.22;99360.84;180652;1257;43849;-60
2023/11/09 17:32:17;;;;;;;19.00;12.50;;;;;;;10.03;83.40;99354.73;180628;1257;44718;-60
2023/11/09 17:36:22;;;;;;;11.30;9.20;;;;;;;9.96;84.11;99347.43;180760;1257;43729;-60
2023/11/09 17:40:27;;;;;;;9.90;6.90;;;;;;;9.90;84.23;99332.69;180442;1257;58716;-60
2023/11/09 17:44:30;;;;;;;12.80;8.30;;;;;;;9.97;83.70;99329.58;180568;1257;45868;-60
2023/11/09 17:48:53;;;;;;;10.40;8.00;;;;;;;10.01;83.60;99321.43;180663;1257;43593;-60
2023/11/09 17:52:56;;;;;;;12.30;8.50;;;;;;;10.04;83.70;99320.97;180678;1258;44540;-60
2023/11/09 17:57:03;;;;;;;11.10;8.20;;;;;;;10.02;83.80;99318.16;180627;1257;44524;-60
2023/11/09 18:01:10;;;;;;;10.70;6.60;;;;;;;10.05;83.75;99312.56;180654;1257;58284;-60
2023/11/09 18:05:24;;;;;;;8.30;7.20;;;;;;;10.07;83.60;99302.58;180669;1257;45149;-60
2023/11/09 18:09:28;;;;;;;11.40;7.10;;;;;;;10.03;84.07;99305.25;180385;1257;45946;-59
2023/11/09 18:13:33;;;;;;;11.90;8.40;;;;;;;10.02;84.03;99300.18;180356;1257;45013;-60
2023/11/09 18:17:37;;;;;;;12.90;7.70;;;;;;;10.04;83.86;99298.77;180452;1257;45063;-60
2023/11/09 18:21:49;;;;;;;11.20;8.20;;;;;;;10.01;83.41;99296.62;180480;1257;59505;-60
2023/11/09 18:25:54;;;;;;;9.60;7.00;;;;;;;10.04;83.06;99293.52;180154;1257;177717;-60
2023/11/09 18:29:59;;;;;;;15.60;9.10;;;;;;;10.04;82.52;99287.67;180671;1257;43572;-60
2023/11/09 18:34:02;;;;;;;9.10;7.30;;;;;;;10.08;82.21;99277.48;180476;1257;46147;-60
2023/11/09 18:38:06;;;;;;;12.20;8.80;;;;;;;10.10;82.47;99286.02;180685;1257;43867;-61
2023/11/09 18:42:10;;;;;;;27.30;18.60;;;;;;;9.99;85.11;99285.80;180589;1257;59944;-60
2023/11/09 18:46:15;;;;;;;32.70;17.40;;;;;;;9.61;88.61;99295.05;180605;1257;43978;-60
2023/11/09 18:50:19;;;;;;;26.80;15.30;;;;;;;9.29;90.45;99301.65;180416;1257;43899;-61
2023/11/09 18:54:26;;;;;;;25.80;15.80;;;;;;;9.12;91.86;99294.71;180504;1257;44999;-61
2023/11/09 18:58:30;;;;;;;27.40;16.50;;;;;;;9.04;92.49;99283.66;180428;1260;43809;-61
2023/11/09 19:02:33;;;;;;;20.80;14.10;;;;;;;8.95;92.32;99281.10;180518;1257;58733;-62
2023/11/09 19:06:38;;;;;;;28.10;16.50;;;;;;;8.97;91.40;99281.23;180409;1258;46229;-61
2023/11/09 19:10:48;;;;;;;34.00;16.80;;;;;;;9.07;90.94;99275.79;180559;1256;44898;-61
2023/11/09 19:15:17;;;;;;;20.30;13.80;;;;;;;9.14;90.70;99269.08;180480;1256;46039;-61
2023/11/09 19:19:22;;;;;;;15.20;10.60;;;;;;;9.13;90.89;99268.89;180443;1256;45984;-62
2023/11/09 19:23:29;;;;;;;16.60;10.50;;;;;;;9.09;90.97;99263.49;179710;1258;93950;-85
2023/11/09 19:27:33;;;;;;;14.40;10.30;;;;;;;9.16;90.85;99264.33;179275;1259;46104;-86
2023/11/09 19:31:36;;;;;;;16.40;10.90;;;;;;;9.24;90.54;99256.13;178908;1260;45898;-85
2023/11/09 19:35:40;;;;;;;14.50;11.10;;;;;;;9.29;91.04;99260.29;178987;1260;44934;-86
2023/11/09 19:39:43;;;;;;;17.00;11.40;;;;;;;9.35;90.98;99268.79;179127;1263;46326;-88